createdAt,value
2022-12-16T00:00:20.558Z,432.06
2022-12-16T00:01:28.584Z,433.41
2022-12-16T00:02:32.433Z,430.89
2022-12-16T00:03:40.966Z,439.01
2022-12-16T00:04:44.862Z,426.07
2022-12-16T00:05:53.036Z,424.08
2022-12-16T00:06:58.662Z,434.75
2022-12-16T00:08:08.049Z,434.29
2022-12-16T00:09:12.932Z,434.58
2022-12-16T00:10:20.489Z,430.12
2022-12-16T00:11:24.800Z,424.58
2022-12-16T00:12:30.995Z,419.54
2022-12-16T00:13:40.531Z,419.04
2022-12-16T00:14:47.359Z,419.96
2022-12-16T00:15:50.685Z,430.72
2022-12-16T00:16:56.593Z,438.71
2022-12-16T00:17:59.958Z,421.81
2022-12-16T00:19:06.256Z,427.65
2022-12-16T00:20:12.555Z,432.76
2022-12-16T00:21:18.885Z,513.11
2022-12-16T00:22:22.851Z,413.92
2022-12-16T00:23:32.514Z,421.10
2022-12-16T00:24:36.516Z,414.91
2022-12-16T00:25:46.048Z,426.32
2022-12-16T00:26:52.605Z,450.14
2022-12-16T00:28:00.468Z,443.70
2022-12-16T00:29:07.280Z,431.96
2022-12-16T00:30:15.257Z,438.09
2022-12-16T00:31:22.115Z,435.88
2022-12-16T00:32:25.497Z,429.07
2022-12-16T00:33:32.573Z,450.50
2022-12-16T00:34:36.273Z,435.37
2022-12-16T00:35:45.886Z,448.40
2022-12-16T00:36:52.992Z,429.59
2022-12-16T00:37:56.335Z,428.53
2022-12-16T00:39:06.438Z,434.01
2022-12-16T00:40:11.976Z,433.14
2022-12-16T00:41:17.976Z,435.71
2022-12-16T00:42:22.200Z,427.10
2022-12-16T00:43:28.552Z,443.75
2022-12-16T00:44:32.058Z,438.66
2022-12-16T00:45:39.305Z,450.49
2022-12-16T00:46:42.842Z,435.09
2022-12-16T00:47:54.407Z,444.60
2022-12-16T00:48:58.616Z,427.49
2022-12-16T00:50:05.128Z,432.86
2022-12-16T00:51:08.535Z,430.39
2022-12-16T00:52:14.409Z,435.43
2022-12-16T00:53:18.993Z,443.15
2022-12-16T00:54:32.116Z,438.97
2022-12-16T00:55:35.450Z,446.98
2022-12-16T00:56:41.508Z,435.60
2022-12-16T00:57:45.758Z,430.40
2022-12-16T00:58:52.520Z,450.22
2022-12-16T00:59:58.224Z,446.72
2022-12-16T01:01:06.025Z,446.89
2022-12-16T01:02:11.332Z,434.31
2022-12-16T01:03:21.470Z,460.95
2022-12-16T01:04:29.678Z,455.60
2022-12-16T01:05:33.084Z,484.14
2022-12-16T01:06:39.117Z,472.58
2022-12-16T01:07:42.994Z,483.21
2022-12-16T01:08:49.485Z,477.73
2022-12-16T01:09:56.271Z,496.18
2022-12-16T01:11:02.278Z,497.87
2022-12-16T01:12:06.646Z,502.30
2022-12-16T01:13:12.922Z,496.46
2022-12-16T01:14:19.652Z,479.30
2022-12-16T01:15:24.290Z,468.44
2022-12-16T01:16:30.424Z,452.38
2022-12-16T01:17:35.303Z,473.10
2022-12-16T01:18:41.573Z,473.05
2022-12-16T01:19:47.569Z,456.31
2022-12-16T01:20:51.881Z,451.65
2022-12-16T01:21:57.825Z,446.95
2022-12-16T01:23:01.532Z,447.95
2022-12-16T01:24:13.315Z,439.36
2022-12-16T01:25:19.432Z,432.93
2022-12-16T01:26:26.972Z,443.57
2022-12-16T01:27:30.899Z,432.92
2022-12-16T01:28:36.852Z,440.80
2022-12-16T01:29:40.806Z,429.56
2022-12-16T01:30:46.767Z,427.93
2022-12-16T01:31:51.560Z,443.10
2022-12-16T01:32:58.241Z,454.21
2022-12-16T01:34:01.529Z,447.09
2022-12-16T01:35:29.489Z,448.87
2022-12-16T01:36:35.626Z,431.51
2022-12-16T01:37:40.089Z,445.91
2022-12-16T01:38:48.084Z,451.76
2022-12-16T01:39:52.580Z,463.28
2022-12-16T01:41:01.364Z,442.14
2022-12-16T01:42:12.368Z,445.57
2022-12-16T01:43:24.427Z,453.84
2022-12-16T01:44:28.290Z,450.82
2022-12-16T01:45:38.924Z,438.58
2022-12-16T01:46:47.645Z,430.37
2022-12-16T01:47:58.064Z,451.58
2022-12-16T01:49:14.401Z,446.90
2022-12-16T01:50:19.558Z,445.31
2022-12-16T01:51:33.215Z,460.87
2022-12-16T01:52:44.442Z,452.15
2022-12-16T01:53:58.976Z,451.62
2022-12-16T01:55:12.439Z,458.71
2022-12-16T01:56:27.718Z,441.52
2022-12-16T01:57:41.151Z,447.70
2022-12-16T01:58:49.748Z,443.24
2022-12-16T01:59:57.940Z,456.99
2022-12-16T02:01:06.403Z,445.88
2022-12-16T02:02:12.172Z,444.99
2022-12-16T02:03:19.869Z,437.40
2022-12-16T02:04:23.411Z,428.61
2022-12-16T02:05:32.041Z,437.66
2022-12-16T02:06:36.212Z,430.80
2022-12-16T02:07:42.105Z,427.51
2022-12-16T02:08:47.981Z,449.25
2022-12-16T02:09:52.167Z,456.73
2022-12-16T02:11:26.850Z,434.08
2022-12-16T02:12:52.510Z,446.36
2022-12-16T02:14:39.196Z,438.05
2022-12-16T02:15:57.843Z,445.58
2022-12-16T02:17:17.485Z,445.50
2022-12-16T02:18:39.702Z,448.83
2022-12-16T02:20:19.883Z,452.62
2022-12-16T02:21:51.840Z,446.55
2022-12-16T02:23:37.016Z,468.63
2022-12-16T02:25:35.637Z,478.92
2022-12-16T02:27:30.208Z,461.95
2022-12-16T02:29:12.886Z,471.65
2022-12-16T02:30:56.508Z,448.79
2022-12-16T02:32:20.139Z,453.74
2022-12-16T02:34:13.617Z,459.77
2022-12-16T02:35:36.065Z,432.55
2022-12-16T02:37:05.871Z,428.80
2022-12-16T02:38:29.019Z,449.69
2022-12-16T02:39:40.134Z,463.10
2022-12-16T02:40:58.791Z,433.69
2022-12-16T02:42:17.450Z,440.85
2022-12-16T02:43:53.633Z,439.07
2022-12-16T02:45:09.196Z,437.92
2022-12-16T02:46:20.164Z,444.32
2022-12-16T02:47:27.206Z,450.20
2022-12-16T02:48:30.805Z,439.50
2022-12-16T02:49:53.177Z,448.49
2022-12-16T02:50:56.984Z,430.56
2022-12-16T02:52:05.492Z,438.28
2022-12-16T02:53:13.871Z,443.71
2022-12-16T02:54:19.449Z,456.16
2022-12-16T02:55:41.454Z,435.88
2022-12-16T02:57:06.085Z,462.45
2022-12-16T02:58:28.244Z,431.02
2022-12-16T02:59:49.757Z,434.98
2022-12-16T03:01:11.961Z,436.51
2022-12-16T03:02:31.383Z,446.89
2022-12-16T03:03:49.780Z,445.29
2022-12-16T03:05:08.938Z,442.46
2022-12-16T03:06:22.266Z,453.98
2022-12-16T03:07:32.515Z,446.50
2022-12-16T03:08:47.212Z,475.76
2022-12-16T03:09:55.311Z,496.69
2022-12-16T03:11:08.389Z,464.98
2022-12-16T03:12:18.569Z,473.51
2022-12-16T03:13:28.064Z,476.00
2022-12-16T03:14:39.696Z,462.67
2022-12-16T03:15:51.590Z,489.04
2022-12-16T03:16:56.117Z,476.70
2022-12-16T03:18:10.873Z,508.42
2022-12-16T03:19:14.871Z,506.59
2022-12-16T03:20:30.455Z,524.79
2022-12-16T03:21:48.120Z,487.05
2022-12-16T03:22:55.827Z,465.09
2022-12-16T03:24:08.555Z,470.07
2022-12-16T03:25:12.744Z,457.58
2022-12-16T03:26:27.999Z,460.64
2022-12-16T03:27:46.752Z,452.19
2022-12-16T03:29:02.256Z,457.43
2022-12-16T03:30:13.556Z,459.54
2022-12-16T03:31:41.918Z,462.09
2022-12-16T03:32:57.182Z,463.66
2022-12-16T03:34:17.936Z,469.17
2022-12-16T03:35:29.267Z,462.42
2022-12-16T03:36:42.856Z,469.22
2022-12-16T03:37:53.371Z,470.63
2022-12-16T03:39:02.820Z,471.41
2022-12-16T03:40:14.887Z,462.18
2022-12-16T03:41:24.136Z,464.98
2022-12-16T03:42:31.590Z,468.74
2022-12-16T03:43:35.560Z,482.30
2022-12-16T03:44:42.776Z,470.23
2022-12-16T03:45:52.091Z,470.75
2022-12-16T03:46:58.226Z,477.91
2022-12-16T03:48:02.426Z,468.31
2022-12-16T03:49:11.023Z,492.28
2022-12-16T03:50:14.760Z,488.00
2022-12-16T03:51:21.739Z,496.36
2022-12-16T03:52:25.105Z,497.65
2022-12-16T03:53:32.350Z,501.58
2022-12-16T03:54:38.600Z,496.97
2022-12-16T03:55:41.918Z,478.41
2022-12-16T03:56:47.883Z,493.58
2022-12-16T03:57:51.293Z,501.71
2022-12-16T03:58:58.919Z,496.45
2022-12-16T04:00:02.296Z,488.27
2022-12-16T04:01:18.642Z,482.81
2022-12-16T04:02:22.249Z,491.82
2022-12-16T04:03:28.339Z,483.23
2022-12-16T04:04:35.231Z,493.67
2022-12-16T04:05:41.703Z,494.85
2022-12-16T04:06:45.095Z,480.80
2022-12-16T04:07:51.080Z,472.56
2022-12-16T04:08:54.575Z,486.09
2022-12-16T04:10:01.376Z,488.98
2022-12-16T04:11:19.735Z,484.90
2022-12-16T04:12:38.287Z,471.61
2022-12-16T04:13:56.668Z,482.17
2022-12-16T04:15:15.903Z,489.78
2022-12-16T04:16:34.183Z,490.25
2022-12-16T04:17:52.804Z,488.49
2022-12-16T04:19:11.356Z,489.86
2022-12-16T04:20:40.114Z,469.08
2022-12-16T04:21:58.532Z,481.05
2022-12-16T04:23:17.788Z,477.37
2022-12-16T04:24:32.036Z,481.06
2022-12-16T04:25:41.504Z,475.45
2022-12-16T04:26:59.768Z,464.62
2022-12-16T04:28:06.548Z,454.50
2022-12-16T04:29:09.854Z,446.16
2022-12-16T04:30:23.295Z,464.01
2022-12-16T04:31:27.637Z,459.15
2022-12-16T04:32:56.204Z,459.09
2022-12-16T04:34:14.595Z,422.86
2022-12-16T04:35:36.779Z,441.74
2022-12-16T04:37:04.645Z,451.20
2022-12-16T04:38:23.094Z,434.90
2022-12-16T04:39:50.185Z,424.72
2022-12-16T04:41:08.709Z,431.16
2022-12-16T04:42:27.664Z,455.24
2022-12-16T04:43:46.074Z,445.69
2022-12-16T04:45:04.596Z,436.44
2022-12-16T04:46:23.069Z,450.59
2022-12-16T04:47:42.297Z,444.90
2022-12-16T04:49:00.698Z,444.76
2022-12-16T04:50:19.347Z,439.65
2022-12-16T04:51:40.244Z,443.15
2022-12-16T04:52:59.341Z,449.13
2022-12-16T04:54:17.988Z,468.60
2022-12-16T04:55:36.481Z,452.13
2022-12-16T04:56:54.770Z,460.27
2022-12-16T04:58:17.385Z,457.11
2022-12-16T04:59:35.732Z,468.20
2022-12-16T05:00:55.751Z,469.89
2022-12-16T05:02:14.529Z,481.12
2022-12-16T05:03:33.859Z,482.10
2022-12-16T05:04:52.456Z,489.50
2022-12-16T05:06:10.730Z,510.27
2022-12-16T05:07:37.772Z,506.92
2022-12-16T05:08:57.407Z,517.90
2022-12-16T05:10:15.740Z,496.97
2022-12-16T05:11:34.044Z,486.64
2022-12-16T05:12:52.460Z,499.16
2022-12-16T05:14:11.590Z,474.61
2022-12-16T05:15:30.158Z,473.84
2022-12-16T05:16:48.579Z,476.56
2022-12-16T05:18:06.886Z,462.45
2022-12-16T05:19:31.473Z,452.51
2022-12-16T05:20:50.348Z,454.57
2022-12-16T05:22:09.247Z,451.75
2022-12-16T05:23:30.632Z,454.32
2022-12-16T05:24:53.060Z,440.62
2022-12-16T05:26:11.707Z,421.39
2022-12-16T05:27:30.061Z,435.18
2022-12-16T05:28:48.492Z,427.66
2022-12-16T05:30:07.703Z,436.04
2022-12-16T05:31:26.169Z,431.23
2022-12-16T05:32:44.631Z,421.31
2022-12-16T05:34:03.104Z,411.77
2022-12-16T05:35:23.038Z,416.92
2022-12-16T05:36:41.324Z,410.57
2022-12-16T05:37:59.614Z,410.25
2022-12-16T05:39:23.220Z,413.14
2022-12-16T05:40:42.468Z,416.22
2022-12-16T05:42:00.784Z,407.00
2022-12-16T05:43:19.190Z,412.44
2022-12-16T05:44:37.544Z,417.44
2022-12-16T05:45:57.845Z,407.04
2022-12-16T05:47:16.274Z,405.41
2022-12-16T05:48:34.705Z,407.26
2022-12-16T05:49:53.344Z,395.26
2022-12-16T05:51:13.054Z,387.27
2022-12-16T05:52:32.556Z,405.20
2022-12-16T05:53:51.061Z,405.29
2022-12-16T05:55:12.272Z,405.93
2022-12-16T05:56:31.370Z,399.71
2022-12-16T05:57:49.864Z,401.98
2022-12-16T05:59:08.264Z,416.42
2022-12-16T06:00:28.913Z,414.91
2022-12-16T06:01:48.136Z,409.74
2022-12-16T06:03:06.684Z,401.74
2022-12-16T06:04:30.940Z,396.31
2022-12-16T06:05:49.349Z,401.91
2022-12-16T06:07:08.625Z,391.58
2022-12-16T06:08:27.005Z,387.31
2022-12-16T06:09:56.307Z,401.70
2022-12-16T06:11:17.678Z,400.51
2022-12-16T06:12:36.853Z,381.05
2022-12-16T06:13:55.204Z,399.97
2022-12-16T06:15:13.688Z,416.26
2022-12-16T06:16:32.062Z,412.15
2022-12-16T06:17:51.442Z,402.14
2022-12-16T06:19:09.838Z,400.35
2022-12-16T06:20:28.388Z,415.30
2022-12-16T06:21:46.822Z,394.47
2022-12-16T06:23:07.303Z,394.38
2022-12-16T06:24:25.956Z,376.85
2022-12-16T06:25:44.924Z,378.25
2022-12-16T06:27:05.909Z,379.35
2022-12-16T06:28:25.080Z,406.98
2022-12-16T06:29:43.419Z,406.13
2022-12-16T06:31:01.824Z,397.56
2022-12-16T06:32:20.313Z,388.63
2022-12-16T06:33:39.877Z,393.88
2022-12-16T06:34:58.261Z,379.22
2022-12-16T06:36:16.502Z,391.27
2022-12-16T06:37:35.810Z,384.29
2022-12-16T06:38:54.902Z,367.19
2022-12-16T06:40:13.379Z,379.35
2022-12-16T06:41:31.886Z,384.35
2022-12-16T06:42:55.989Z,384.15
2022-12-16T06:44:15.472Z,384.47
2022-12-16T06:45:48.867Z,375.98
2022-12-16T06:47:07.314Z,379.10
2022-12-16T06:48:27.076Z,380.36
2022-12-16T06:49:46.352Z,374.81
2022-12-16T06:51:19.403Z,384.07
2022-12-16T06:52:37.758Z,388.74
2022-12-16T06:53:56.506Z,382.99
2022-12-16T06:55:15.953Z,381.61
2022-12-16T06:56:35.230Z,386.97
2022-12-16T06:57:56.503Z,375.03
2022-12-16T06:59:17.542Z,369.40
2022-12-16T07:00:39.704Z,380.02
2022-12-16T07:01:59.753Z,381.28
2022-12-16T07:03:18.429Z,369.25
2022-12-16T07:04:37.111Z,383.37
2022-12-16T07:05:56.923Z,386.37
2022-12-16T07:07:15.511Z,377.18
2022-12-16T07:08:34.047Z,372.90
2022-12-16T07:09:53.470Z,369.49
2022-12-16T07:11:17.285Z,360.85
2022-12-16T07:12:36.106Z,367.93
2022-12-16T07:14:11.846Z,366.77
2022-12-16T07:15:30.518Z,356.72
2022-12-16T07:16:50.234Z,350.65
2022-12-16T07:18:08.614Z,370.99
2022-12-16T07:19:26.898Z,364.90
2022-12-16T07:20:45.948Z,379.60
2022-12-16T07:22:05.163Z,379.42
2022-12-16T07:23:23.555Z,369.89
2022-12-16T07:24:41.876Z,368.18
2022-12-16T07:26:00.342Z,357.30
2022-12-16T07:27:20.351Z,375.71
2022-12-16T07:28:38.781Z,369.65
2022-12-16T07:29:59.907Z,366.79
2022-12-16T07:31:18.415Z,368.09
2022-12-16T07:32:37.603Z,373.31
2022-12-16T07:33:56.134Z,380.77
2022-12-16T07:35:14.415Z,379.31
2022-12-16T07:36:33.448Z,409.18
2022-12-16T07:37:54.980Z,421.10
2022-12-16T07:39:13.588Z,472.27
2022-12-16T07:40:32.130Z,477.17
2022-12-16T07:41:50.460Z,454.56
2022-12-16T07:43:12.075Z,471.13
2022-12-16T07:44:30.524Z,465.42
2022-12-16T07:45:51.529Z,495.37
2022-12-16T07:47:11.718Z,476.90
2022-12-16T07:48:39.957Z,483.56
2022-12-16T07:49:58.276Z,461.48
2022-12-16T07:51:18.220Z,457.26
2022-12-16T07:52:36.735Z,471.22
2022-12-16T07:54:07.796Z,516.09
2022-12-16T07:55:26.207Z,483.62
2022-12-16T07:56:44.511Z,468.42
2022-12-16T07:58:06.135Z,476.75
2022-12-16T07:59:25.240Z,469.34
2022-12-16T08:00:43.598Z,445.86
2022-12-16T08:02:04.726Z,451.70
2022-12-16T08:03:23.263Z,453.89
2022-12-16T08:04:42.648Z,439.65
2022-12-16T08:06:00.982Z,446.53
2022-12-16T08:07:19.813Z,441.76
2022-12-16T08:08:38.314Z,444.01
2022-12-16T08:09:57.446Z,439.65
2022-12-16T08:11:15.949Z,447.68
2022-12-16T08:12:34.360Z,451.05
2022-12-16T08:13:53.465Z,456.93
2022-12-16T08:15:13.051Z,468.58
2022-12-16T08:16:46.394Z,474.77
2022-12-16T08:18:09.009Z,473.29
2022-12-16T08:19:28.222Z,472.38
2022-12-16T08:20:47.730Z,452.94
2022-12-16T08:22:06.157Z,455.72
2022-12-16T08:23:24.361Z,458.34
2022-12-16T08:24:46.832Z,463.48
2022-12-16T08:26:10.710Z,469.59
2022-12-16T08:27:29.210Z,468.14
2022-12-16T08:28:47.587Z,464.04
2022-12-16T08:30:05.957Z,466.37
2022-12-16T08:31:25.208Z,476.30
2022-12-16T08:32:45.976Z,467.52
2022-12-16T08:34:06.953Z,498.40
2022-12-16T08:35:26.387Z,508.01
2022-12-16T08:36:45.575Z,510.97
2022-12-16T08:38:09.063Z,500.61
2022-12-16T08:39:31.990Z,492.09
2022-12-16T08:40:50.418Z,505.54
2022-12-16T08:42:11.511Z,493.45
2022-12-16T08:43:30.499Z,495.57
2022-12-16T08:44:49.209Z,462.47
2022-12-16T08:46:10.224Z,457.35
2022-12-16T08:47:32.492Z,477.79
2022-12-16T08:48:50.957Z,451.52
2022-12-16T08:50:11.957Z,488.54
2022-12-16T08:51:30.577Z,490.13
2022-12-16T08:52:49.916Z,481.60
2022-12-16T08:54:08.826Z,507.35
2022-12-16T08:55:29.739Z,531.64
2022-12-16T08:56:48.689Z,519.77
2022-12-16T08:58:11.496Z,517.93
2022-12-16T08:59:30.487Z,507.37
2022-12-16T09:00:48.995Z,488.77
2022-12-16T09:02:07.868Z,459.89
2022-12-16T09:03:28.347Z,476.88
2022-12-16T09:04:49.103Z,468.55
2022-12-16T09:06:14.478Z,480.38
2022-12-16T09:07:33.119Z,485.96
2022-12-16T09:08:53.837Z,484.75
2022-12-16T09:10:12.427Z,458.49
2022-12-16T09:11:31.226Z,468.49
2022-12-16T09:12:50.043Z,470.01
2022-12-16T09:14:10.123Z,467.52
2022-12-16T09:15:28.807Z,453.04
2022-12-16T09:16:47.233Z,463.94
2022-12-16T09:18:10.137Z,470.31
2022-12-16T09:19:29.547Z,471.13
2022-12-16T09:20:47.947Z,471.81
2022-12-16T09:22:08.978Z,494.53
2022-12-16T09:23:27.313Z,651.35
2022-12-16T09:24:46.723Z,580.70
2022-12-16T09:26:05.465Z,524.38
2022-12-16T09:27:23.977Z,530.09
2022-12-16T09:28:43.256Z,551.68
2022-12-16T09:30:05.415Z,517.14
2022-12-16T09:31:23.910Z,544.83
2022-12-16T09:32:42.555Z,582.73
2022-12-16T09:34:00.883Z,595.56
2022-12-16T09:35:21.090Z,554.95
2022-12-16T09:36:39.407Z,496.31
2022-12-16T09:38:05.743Z,497.49
2022-12-16T09:39:24.121Z,507.22
2022-12-16T09:40:43.404Z,528.61
2022-12-16T09:42:30.894Z,518.64
2022-12-16T09:44:12.399Z,485.74
2022-12-16T09:45:47.832Z,521.31
2022-12-16T09:47:25.948Z,542.14
2022-12-16T09:49:01.532Z,546.32
2022-12-16T09:50:33.559Z,573.66
2022-12-16T09:51:56.163Z,515.59
2022-12-16T09:53:27.100Z,485.62
2022-12-16T09:55:03.534Z,504.93
2022-12-16T09:56:32.734Z,510.66
2022-12-16T09:57:53.708Z,480.86
2022-12-16T09:59:27.074Z,458.08
2022-12-16T10:00:46.845Z,481.42
2022-12-16T10:02:08.438Z,508.53
2022-12-16T10:03:39.891Z,518.61
2022-12-16T10:05:16.004Z,519.73
2022-12-16T10:06:54.215Z,538.55
2022-12-16T10:08:37.267Z,501.12
2022-12-16T10:10:14.817Z,547.42
2022-12-16T10:11:52.616Z,587.43
2022-12-16T10:13:24.827Z,586.84
2022-12-16T10:14:54.724Z,610.26
2022-12-16T10:16:34.512Z,534.55
2022-12-16T10:18:01.657Z,544.27
2022-12-16T10:19:48.920Z,585.85
2022-12-16T10:21:11.336Z,566.14
2022-12-16T10:22:41.379Z,610.39
2022-12-16T10:24:16.664Z,643.96
2022-12-16T10:25:42.263Z,632.21
2022-12-16T10:27:13.808Z,600.45
2022-12-16T10:28:38.551Z,581.33
2022-12-16T10:30:01.810Z,577.46
2022-12-16T10:31:31.979Z,577.35
2022-12-16T10:32:59.112Z,558.12
2022-12-16T10:34:25.737Z,587.96
2022-12-16T10:35:52.735Z,631.85
2022-12-16T10:37:20.450Z,677.25
2022-12-16T10:38:52.402Z,654.18
2022-12-16T10:40:18.164Z,631.21
2022-12-16T10:41:44.781Z,600.42
2022-12-16T10:43:31.185Z,610.76
2022-12-16T10:45:03.404Z,616.95
2022-12-16T10:46:41.000Z,664.20
2022-12-16T10:48:00.579Z,592.37
2022-12-16T10:49:19.159Z,591.71
2022-12-16T10:50:37.884Z,589.46
2022-12-16T10:51:56.211Z,622.86
2022-12-16T10:53:20.075Z,604.00
2022-12-16T10:54:54.256Z,605.81
2022-12-16T10:56:40.632Z,626.70
2022-12-16T10:58:18.163Z,651.71
2022-12-16T10:59:37.801Z,588.36
2022-12-16T11:01:01.745Z,564.68
2022-12-16T11:02:34.344Z,596.10
2022-12-16T11:03:55.211Z,605.82
2022-12-16T11:05:14.455Z,588.63
2022-12-16T11:06:40.421Z,647.90
2022-12-16T11:08:09.598Z,661.91
2022-12-16T11:09:43.006Z,613.20
2022-12-16T11:11:02.260Z,669.19
2022-12-16T11:12:38.574Z,686.97
2022-12-16T11:13:56.976Z,649.53
2022-12-16T11:15:30.699Z,602.30
2022-12-16T11:16:50.033Z,625.05
2022-12-16T11:18:20.231Z,616.59
2022-12-16T11:19:42.039Z,666.21
2022-12-16T11:21:04.150Z,624.47
2022-12-16T11:22:30.728Z,569.89
2022-12-16T11:23:49.155Z,571.21
2022-12-16T11:25:28.671Z,582.21
2022-12-16T11:26:47.040Z,609.95
2022-12-16T11:28:19.560Z,575.11
2022-12-16T11:29:38.167Z,582.70
2022-12-16T11:30:56.570Z,640.06
2022-12-16T11:32:49.103Z,601.96
2022-12-16T11:34:11.354Z,558.61
2022-12-16T11:35:39.617Z,501.05
2022-12-16T11:37:03.490Z,522.25
2022-12-16T11:38:37.006Z,581.38
2022-12-16T11:40:08.346Z,516.80
2022-12-16T11:41:45.963Z,552.66
2022-12-16T11:43:11.657Z,622.61
2022-12-16T11:44:44.509Z,679.69
2022-12-16T11:46:07.959Z,664.76
2022-12-16T11:47:39.712Z,616.59
2022-12-16T11:49:05.211Z,610.67
2022-12-16T11:50:33.018Z,649.76
2022-12-16T11:52:28.116Z,625.20
2022-12-16T11:53:49.950Z,579.32
2022-12-16T11:55:56.011Z,574.99
2022-12-16T11:57:09.432Z,600.16
2022-12-16T11:58:43.386Z,623.26
2022-12-16T12:00:14.654Z,644.70
2022-12-16T12:01:45.470Z,633.19
2022-12-16T12:03:16.931Z,642.47
2022-12-16T12:04:35.532Z,629.99
2022-12-16T12:06:20.683Z,651.99
2022-12-16T12:07:50.516Z,751.88
2022-12-16T12:09:22.610Z,721.85
2022-12-16T12:11:11.591Z,659.76
2022-12-16T12:12:48.060Z,680.23
2022-12-16T12:14:27.155Z,646.31
2022-12-16T12:16:01.164Z,614.96
2022-12-16T12:17:47.044Z,670.92
2022-12-16T12:19:21.569Z,763.61
2022-12-16T12:21:02.560Z,660.18
2022-12-16T12:22:36.613Z,743.52
2022-12-16T12:24:13.768Z,731.12
2022-12-16T12:25:48.008Z,666.11
2022-12-16T12:27:19.547Z,640.43
2022-12-16T12:28:58.988Z,714.03
2022-12-16T12:30:25.639Z,715.57
2022-12-16T12:32:04.407Z,686.78
2022-12-16T12:33:46.885Z,686.34
2022-12-16T12:35:28.331Z,709.91
2022-12-16T12:37:04.472Z,617.63
2022-12-16T12:38:35.206Z,590.82
2022-12-16T12:40:12.614Z,628.99
2022-12-16T12:41:43.252Z,640.22
2022-12-16T12:43:09.031Z,597.62
2022-12-16T12:44:54.600Z,651.56
2022-12-16T12:46:30.216Z,682.59
2022-12-16T12:48:02.840Z,681.16
2022-12-16T12:49:37.562Z,631.18
2022-12-16T12:51:21.408Z,603.40
2022-12-16T12:53:18.657Z,605.56
2022-12-16T12:54:57.647Z,596.17
2022-12-16T12:56:31.986Z,598.84
2022-12-16T12:57:56.936Z,596.68
2022-12-16T12:59:27.405Z,559.07
2022-12-16T13:00:57.275Z,572.93
2022-12-16T13:02:20.678Z,590.40
2022-12-16T13:03:54.385Z,602.32
2022-12-16T13:05:19.731Z,617.80
2022-12-16T13:06:50.126Z,618.21
2022-12-16T13:08:09.572Z,587.70
2022-12-16T13:09:45.367Z,643.97
2022-12-16T13:11:03.652Z,645.77
2022-12-16T13:12:50.321Z,649.90
2022-12-16T13:14:08.647Z,649.56
2022-12-16T13:15:48.141Z,658.15
2022-12-16T13:17:17.996Z,633.97
2022-12-16T13:18:49.345Z,609.30
2022-12-16T13:20:14.437Z,649.43
2022-12-16T13:22:02.205Z,573.43
2022-12-16T13:23:46.939Z,603.32
2022-12-16T13:25:08.130Z,565.59
2022-12-16T13:26:26.631Z,585.93
2022-12-16T13:28:05.003Z,560.18
2022-12-16T13:29:38.350Z,571.51
2022-12-16T13:31:25.255Z,548.08
2022-12-16T13:32:44.664Z,589.52
2022-12-16T13:34:12.540Z,564.52
2022-12-16T13:35:34.438Z,575.19
2022-12-16T13:36:55.924Z,582.51
2022-12-16T13:38:18.655Z,588.65
2022-12-16T13:39:42.744Z,571.42
2022-12-16T13:41:11.912Z,530.50
2022-12-16T13:43:05.159Z,540.71
2022-12-16T13:44:24.897Z,631.90
2022-12-16T13:45:50.988Z,676.98
2022-12-16T13:47:12.368Z,637.48
2022-12-16T13:48:58.702Z,622.90
2022-12-16T13:50:53.247Z,618.80
2022-12-16T13:52:27.707Z,567.58
2022-12-16T13:53:53.670Z,591.69
2022-12-16T13:55:30.530Z,607.70
2022-12-16T13:56:56.977Z,596.83
2022-12-16T13:58:29.121Z,609.61
2022-12-16T13:59:49.030Z,607.56
2022-12-16T14:01:21.211Z,608.08
2022-12-16T14:02:54.077Z,595.68
2022-12-16T14:04:16.223Z,563.10
2022-12-16T14:05:44.696Z,586.92
2022-12-16T14:07:05.721Z,554.07
2022-12-16T14:08:43.103Z,564.34
2022-12-16T14:10:05.397Z,569.95
2022-12-16T14:11:40.189Z,624.13
2022-12-16T14:13:21.877Z,704.14
2022-12-16T14:14:51.273Z,763.03
2022-12-16T14:16:26.431Z,830.36
2022-12-16T14:18:01.094Z,900.33
2022-12-16T14:19:44.133Z,888.70
2022-12-16T14:21:13.611Z,918.14
2022-12-16T14:22:58.345Z,758.75
2022-12-16T14:24:35.896Z,700.53
2022-12-16T14:26:00.644Z,703.72
2022-12-16T14:27:32.799Z,721.33
2022-12-16T14:28:54.976Z,703.24
2022-12-16T14:30:14.931Z,909.58
2022-12-16T14:31:39.630Z,822.88
2022-12-16T14:32:58.165Z,748.61
2022-12-16T14:34:19.404Z,696.01
2022-12-16T14:35:42.806Z,744.84
2022-12-16T14:37:04.470Z,780.98
2022-12-16T14:38:42.289Z,910.92
2022-12-16T14:40:05.825Z,929.69
2022-12-16T14:41:30.290Z,897.90
2022-12-16T14:42:48.867Z,893.77
2022-12-16T14:44:09.981Z,809.53
2022-12-16T14:45:44.834Z,942.70
2022-12-16T14:47:08.358Z,857.13
2022-12-16T14:48:37.481Z,793.39
2022-12-16T14:50:08.049Z,736.65
2022-12-16T14:51:45.734Z,760.13
2022-12-16T14:53:29.565Z,731.00
2022-12-16T14:54:54.785Z,746.78
2022-12-16T14:56:31.103Z,780.27
2022-12-16T14:57:50.112Z,725.40
2022-12-16T14:59:29.792Z,797.10
2022-12-16T15:00:54.751Z,807.28
2022-12-16T15:02:35.861Z,779.26
2022-12-16T15:03:59.569Z,762.53
2022-12-16T15:05:20.800Z,731.91
2022-12-16T15:06:45.383Z,753.39
2022-12-16T15:08:07.050Z,770.72
2022-12-16T15:09:39.430Z,783.06
2022-12-16T15:10:59.758Z,773.97
2022-12-16T15:12:19.426Z,764.46
2022-12-16T15:13:38.713Z,755.60
2022-12-16T15:14:58.584Z,823.14
2022-12-16T15:16:21.841Z,881.61
2022-12-16T15:17:47.015Z,976.86
2022-12-16T15:19:16.312Z,993.51
2022-12-16T15:20:41.801Z,801.52
2022-12-16T15:22:02.565Z,778.59
2022-12-16T15:23:35.248Z,779.77
2022-12-16T15:25:03.859Z,779.22
2022-12-16T15:26:24.303Z,794.32
2022-12-16T15:27:51.809Z,846.73
2022-12-16T15:29:10.601Z,853.84
2022-12-16T15:30:52.303Z,854.56
2022-12-16T15:32:10.637Z,955.39
2022-12-16T15:33:34.961Z,1073.00
2022-12-16T15:35:03.791Z,1061.40
2022-12-16T15:36:40.627Z,1012.95
2022-12-16T15:38:03.897Z,953.72
2022-12-16T15:39:52.233Z,932.94
2022-12-16T15:41:10.729Z,1024.64
2022-12-16T15:42:39.804Z,1029.82
2022-12-16T15:44:03.095Z,949.73
2022-12-16T15:45:35.617Z,869.94
2022-12-16T15:46:54.343Z,975.01
2022-12-16T15:48:14.143Z,998.65
2022-12-16T15:49:39.972Z,935.13
2022-12-16T15:51:09.407Z,1000.77
2022-12-16T15:52:53.209Z,886.78
2022-12-16T15:54:19.430Z,900.95
2022-12-16T15:55:47.904Z,909.37
2022-12-16T15:57:07.050Z,924.13
2022-12-16T15:58:40.067Z,956.35
2022-12-16T16:00:13.508Z,1020.30
2022-12-16T16:01:36.629Z,1062.24
2022-12-16T16:03:04.324Z,1046.01
2022-12-16T16:04:37.412Z,913.42
2022-12-16T16:05:56.171Z,882.13
2022-12-16T16:07:14.858Z,894.92
2022-12-16T16:08:34.341Z,850.62
2022-12-16T16:09:55.064Z,848.98
2022-12-16T16:11:16.423Z,848.16
2022-12-16T16:12:38.178Z,929.88
2022-12-16T16:14:04.241Z,1026.87
2022-12-16T16:15:28.801Z,979.89
2022-12-16T16:16:48.099Z,872.46
2022-12-16T16:18:12.186Z,840.21
2022-12-16T16:19:39.827Z,809.06
2022-12-16T16:21:05.351Z,833.38
2022-12-16T16:22:28.938Z,886.18
2022-12-16T16:23:50.928Z,850.72
2022-12-16T16:25:10.480Z,817.06
2022-12-16T16:26:37.244Z,771.22
2022-12-16T16:27:55.561Z,774.98
2022-12-16T16:29:14.084Z,748.00
2022-12-16T16:30:33.371Z,764.99
2022-12-16T16:31:51.740Z,731.56
2022-12-16T16:33:12.806Z,708.73
2022-12-16T16:34:32.027Z,693.77
2022-12-16T16:35:51.289Z,696.84
2022-12-16T16:37:14.612Z,693.54
2022-12-16T16:38:33.038Z,679.59
2022-12-16T16:39:51.338Z,688.65
2022-12-16T16:41:11.039Z,717.60
2022-12-16T16:42:31.993Z,787.75
2022-12-16T16:43:50.404Z,787.32
2022-12-16T16:45:10.935Z,782.02
2022-12-16T16:46:49.963Z,848.30
2022-12-16T16:48:19.761Z,932.50
2022-12-16T16:49:44.530Z,901.40